SU7PY HESX-LTFJ
Flight info
| Callsign | SU7PY |
|---|---|
| Flight time | N/A |
| Altitude | 28000 |
| Route | HESX/34L LAGVI Q777 RASDA M855 TOMBI UA16 EKSEN UL610 ETAMP |
| Aircraft | TBM8/L-SDFGRWY/S |
Departure
| Time | N/A |
|---|---|
| Airport | Sphinx International Airport (HESX) |
Arrival
| Time | 2026-04-28 11:42 |
|---|---|
| Airport | Istanbul Sabiha Gökçen International Airport (LTFJ) |
| Time | Latitude | Longitude | Altitude | Speed | Heading |
|---|---|---|---|---|---|
| 2026-04-28 09:35 | 31.13338 | 31.44244 | 28025 ft | 279 kts | 344° |
| 2026-04-28 09:35 | 31.15273 | 31.43889 | 28031 ft | 283 kts | 345° |
| 2026-04-28 09:35 | 31.17228 | 31.43531 | 28035 ft | 285 kts | 344° |
| 2026-04-28 09:35 | 31.19197 | 31.43162 | 28032 ft | 288 kts | 344° |
| 2026-04-28 09:36 | 31.21155 | 31.42802 | 28031 ft | 290 kts | 345° |
| 2026-04-28 09:36 | 31.23152 | 31.42438 | 28035 ft | 291 kts | 345° |
| 2026-04-28 09:36 | 31.25161 | 31.42071 | 28032 ft | 292 kts | 345° |
| 2026-04-28 09:36 | 31.27178 | 31.41697 | 28032 ft | 294 kts | 345° |
| 2026-04-28 09:37 | 31.29200 | 31.41322 | 28033 ft | 295 kts | 345° |
| 2026-04-28 09:37 | 31.31232 | 31.40944 | 28034 ft | 296 kts | 345° |
| 2026-04-28 09:37 | 31.33270 | 31.40567 | 28030 ft | 297 kts | 345° |
| 2026-04-28 09:37 | 31.35312 | 31.40191 | 28031 ft | 297 kts | 345° |
| 2026-04-28 09:38 | 31.37357 | 31.39812 | 28035 ft | 298 kts | 345° |
| 2026-04-28 09:38 | 31.39410 | 31.39430 | 28035 ft | 298 kts | 345° |
| 2026-04-28 09:38 | 31.41461 | 31.39051 | 28038 ft | 299 kts | 345° |
| 2026-04-28 09:38 | 31.43513 | 31.38670 | 28036 ft | 299 kts | 345° |
| 2026-04-28 09:39 | 31.45574 | 31.38285 | 28036 ft | 299 kts | 345° |
| 2026-04-28 09:39 | 31.47628 | 31.37904 | 28035 ft | 300 kts | 345° |
| 2026-04-28 09:39 | 31.49692 | 31.37523 | 28038 ft | 300 kts | 345° |
| 2026-04-28 09:39 | 31.51726 | 31.37145 | 28038 ft | 300 kts | 345° |
| 2026-04-28 09:40 | 31.53789 | 31.36759 | 28039 ft | 300 kts | 345° |
| 2026-04-28 09:40 | 31.55854 | 31.36396 | 28036 ft | 302 kts | 348° |
| 2026-04-28 09:40 | 31.60052 | 31.35982 | 28037 ft | 302 kts | 349° |
| 2026-04-28 09:41 | 31.64246 | 31.35536 | 28043 ft | 303 kts | 349° |
| 2026-04-28 09:41 | 31.68440 | 31.35106 | 28043 ft | 303 kts | 349° |
| 2026-04-28 09:42 | 31.72620 | 31.34671 | 28041 ft | 303 kts | 349° |
| 2026-04-28 09:42 | 31.76826 | 31.34235 | 28039 ft | 303 kts | 349° |
| 2026-04-28 09:43 | 31.81034 | 31.33798 | 28040 ft | 303 kts | 349° |
| 2026-04-28 09:43 | 31.85242 | 31.33361 | 28040 ft | 303 kts | 349° |
| 2026-04-28 09:44 | 31.89451 | 31.32919 | 28038 ft | 303 kts | 348° |
| 2026-04-28 09:44 | 31.93629 | 31.32476 | 28037 ft | 303 kts | 349° |
| 2026-04-28 09:45 | 31.97841 | 31.32031 | 28037 ft | 303 kts | 348° |
| 2026-04-28 09:45 | 32.02052 | 31.31585 | 28038 ft | 304 kts | 348° |
| 2026-04-28 09:46 | 32.06258 | 31.31139 | 28041 ft | 304 kts | 348° |
| 2026-04-28 09:46 | 32.10472 | 31.30689 | 28040 ft | 304 kts | 348° |
| 2026-04-28 09:47 | 32.14656 | 31.30242 | 28040 ft | 304 kts | 348° |
| 2026-04-28 09:47 | 32.18871 | 31.29791 | 28041 ft | 304 kts | 348° |
| 2026-04-28 09:48 | 32.23078 | 31.29338 | 28040 ft | 304 kts | 348° |
| 2026-04-28 09:48 | 32.27294 | 31.28884 | 28037 ft | 304 kts | 348° |
| 2026-04-28 09:49 | 32.31508 | 31.28430 | 28034 ft | 304 kts | 348° |
| 2026-04-28 09:49 | 32.35694 | 31.27978 | 28035 ft | 304 kts | 348° |
| 2026-04-28 09:50 | 32.39909 | 31.27523 | 28034 ft | 304 kts | 348° |
| 2026-04-28 09:50 | 32.44116 | 31.27069 | 28032 ft | 303 kts | 348° |
| 2026-04-28 09:51 | 32.48299 | 31.26616 | 28032 ft | 303 kts | 348° |
| 2026-04-28 09:51 | 32.52501 | 31.26161 | 28031 ft | 303 kts | 348° |
| 2026-04-28 09:52 | 32.56704 | 31.25697 | 28031 ft | 302 kts | 346° |
| 2026-04-28 09:52 | 32.58698 | 31.25063 | 28035 ft | 293 kts | 331° |
| 2026-04-28 09:52 | 32.60519 | 31.24016 | 28035 ft | 290 kts | 327° |
| 2026-04-28 09:53 | 32.62333 | 31.22955 | 28034 ft | 291 kts | 328° |
| 2026-04-28 09:53 | 32.64154 | 31.21903 | 28035 ft | 291 kts | 328° |
| 2026-04-28 09:53 | 32.65968 | 31.20845 | 28037 ft | 290 kts | 328° |
| 2026-04-28 09:53 | 32.67167 | 31.20143 | 28028 ft | 290 kts | 328° |
| 2026-04-28 09:54 | 32.68981 | 31.19082 | 28029 ft | 290 kts | 328° |
| 2026-04-28 09:54 | 32.71384 | 31.17679 | 28031 ft | 290 kts | 328° |
| 2026-04-28 09:54 | 32.73196 | 31.16621 | 28031 ft | 290 kts | 328° |
| 2026-04-28 09:54 | 32.75008 | 31.15561 | 28032 ft | 290 kts | 328° |
| 2026-04-28 09:55 | 32.76818 | 31.14502 | 28027 ft | 290 kts | 328° |
| 2026-04-28 09:55 | 32.78635 | 31.13438 | 28030 ft | 290 kts | 328° |
| 2026-04-28 09:55 | 32.80451 | 31.12375 | 28031 ft | 290 kts | 328° |
| 2026-04-28 09:55 | 32.82261 | 31.11314 | 28033 ft | 290 kts | 328° |
| 2026-04-28 09:56 | 32.84076 | 31.10251 | 28029 ft | 290 kts | 328° |
| 2026-04-28 09:56 | 32.85276 | 31.09547 | 28030 ft | 290 kts | 328° |
| 2026-04-28 09:56 | 32.87681 | 31.08137 | 28030 ft | 290 kts | 328° |
| 2026-04-28 09:56 | 32.89492 | 31.07073 | 28029 ft | 290 kts | 328° |
| 2026-04-28 09:57 | 32.90699 | 31.06365 | 28031 ft | 290 kts | 328° |
| 2026-04-28 09:57 | 32.93118 | 31.04944 | 28031 ft | 290 kts | 328° |
| 2026-04-28 09:57 | 32.94927 | 31.03880 | 28029 ft | 290 kts | 328° |
| 2026-04-28 09:57 | 32.96721 | 31.02826 | 28029 ft | 290 kts | 328° |
| 2026-04-28 09:58 | 32.98528 | 31.01763 | 28031 ft | 290 kts | 328° |
| 2026-04-28 09:58 | 33.00340 | 31.00696 | 28030 ft | 290 kts | 328° |
| 2026-04-28 09:58 | 33.02149 | 30.99631 | 28030 ft | 290 kts | 328° |
| 2026-04-28 09:58 | 33.03961 | 30.98563 | 28022 ft | 290 kts | 328° |
| 2026-04-28 09:59 | 33.05770 | 30.97497 | 28022 ft | 290 kts | 328° |
| 2026-04-28 09:59 | 33.07584 | 30.96428 | 28025 ft | 290 kts | 328° |
| 2026-04-28 09:59 | 33.09419 | 30.95411 | 28023 ft | 293 kts | 335° |
| 2026-04-28 09:59 | 33.11445 | 30.94941 | 28023 ft | 302 kts | 350° |
| 2026-04-28 10:00 | 33.15675 | 30.94794 | 28026 ft | 303 kts | 352° |
| 2026-04-28 10:00 | 33.19897 | 30.94629 | 28019 ft | 303 kts | 352° |
| 2026-04-28 10:01 | 33.24089 | 30.94474 | 28021 ft | 304 kts | 352° |
| 2026-04-28 10:01 | 33.28317 | 30.94315 | 28023 ft | 304 kts | 352° |
| 2026-04-28 10:02 | 33.32541 | 30.94156 | 28018 ft | 304 kts | 352° |
| 2026-04-28 10:02 | 33.36771 | 30.93997 | 28015 ft | 303 kts | 352° |
| 2026-04-28 10:03 | 33.40995 | 30.93838 | 28018 ft | 303 kts | 352° |
| 2026-04-28 10:03 | 33.45191 | 30.93680 | 28014 ft | 304 kts | 352° |
| 2026-04-28 10:04 | 33.49414 | 30.93520 | 28016 ft | 304 kts | 353° |
| 2026-04-28 10:04 | 33.52954 | 30.93387 | 28015 ft | 303 kts | 353° |
| 2026-04-28 10:05 | 33.57857 | 30.93201 | 28014 ft | 303 kts | 353° |
| 2026-04-28 10:05 | 33.62078 | 30.93041 | 28013 ft | 303 kts | 353° |
| 2026-04-28 10:06 | 33.66296 | 30.92881 | 28015 ft | 303 kts | 353° |
| 2026-04-28 10:06 | 33.70512 | 30.92722 | 28013 ft | 303 kts | 353° |
| 2026-04-28 10:07 | 33.74731 | 30.92561 | 28013 ft | 303 kts | 353° |
| 2026-04-28 10:07 | 33.78921 | 30.92402 | 28012 ft | 303 kts | 353° |
| 2026-04-28 10:08 | 33.83131 | 30.92241 | 28012 ft | 303 kts | 353° |
| 2026-04-28 10:08 | 33.87343 | 30.92081 | 28010 ft | 303 kts | 354° |
| 2026-04-28 10:09 | 33.91558 | 30.91920 | 28009 ft | 303 kts | 354° |
| 2026-04-28 10:09 | 33.95764 | 30.91760 | 28010 ft | 302 kts | 354° |
| 2026-04-28 10:10 | 33.99967 | 30.91518 | 28009 ft | 302 kts | 353° |
| 2026-04-28 10:10 | 34.04161 | 30.91286 | 28008 ft | 302 kts | 353° |
| 2026-04-28 10:11 | 34.08330 | 30.91055 | 28003 ft | 302 kts | 353° |
| 2026-04-28 10:11 | 34.12530 | 30.90822 | 28006 ft | 302 kts | 354° |
| 2026-04-28 10:12 | 34.16018 | 30.90628 | 28006 ft | 302 kts | 354° |
| 2026-04-28 10:12 | 34.18114 | 30.90512 | 27999 ft | 301 kts | 354° |
| 2026-04-28 10:12 | 34.20217 | 30.90394 | 28002 ft | 301 kts | 354° |
| 2026-04-28 10:13 | 34.24406 | 30.90161 | 28004 ft | 301 kts | 354° |
| 2026-04-28 10:13 | 34.26506 | 30.90052 | 27998 ft | 301 kts | 354° |
| 2026-04-28 10:13 | 34.28603 | 30.89956 | 28001 ft | 301 kts | 354° |
| 2026-04-28 10:14 | 34.32761 | 30.89754 | 27998 ft | 301 kts | 354° |
| 2026-04-28 10:14 | 34.34857 | 30.89650 | 27997 ft | 301 kts | 354° |
| 2026-04-28 10:14 | 34.36951 | 30.89548 | 27999 ft | 301 kts | 354° |
| 2026-04-28 10:15 | 34.39043 | 30.89446 | 27998 ft | 301 kts | 354° |
| 2026-04-28 10:15 | 34.41137 | 30.89344 | 27998 ft | 301 kts | 354° |
| 2026-04-28 10:15 | 34.43229 | 30.89241 | 27999 ft | 301 kts | 354° |
| 2026-04-28 10:15 | 34.45320 | 30.89138 | 27996 ft | 301 kts | 354° |
| 2026-04-28 10:16 | 34.47411 | 30.89036 | 27996 ft | 301 kts | 354° |
| 2026-04-28 10:16 | 34.49501 | 30.88933 | 27992 ft | 301 kts | 354° |
| 2026-04-28 10:16 | 34.51597 | 30.88830 | 27993 ft | 301 kts | 354° |
| 2026-04-28 10:16 | 34.53691 | 30.88727 | 27991 ft | 301 kts | 354° |
| 2026-04-28 10:17 | 34.55779 | 30.88624 | 27995 ft | 301 kts | 354° |
| 2026-04-28 10:17 | 34.57868 | 30.88522 | 27994 ft | 301 kts | 354° |
| 2026-04-28 10:17 | 34.59932 | 30.88420 | 27991 ft | 301 kts | 354° |
| 2026-04-28 10:17 | 34.62024 | 30.88317 | 27994 ft | 300 kts | 355° |
| 2026-04-28 10:18 | 34.64117 | 30.88238 | 27992 ft | 301 kts | 355° |
| 2026-04-28 10:18 | 34.66209 | 30.88185 | 27989 ft | 301 kts | 356° |
| 2026-04-28 10:18 | 34.68299 | 30.88122 | 27990 ft | 301 kts | 355° |
| 2026-04-28 10:18 | 34.70392 | 30.88047 | 27990 ft | 300 kts | 355° |
| 2026-04-28 10:19 | 34.72483 | 30.87976 | 27988 ft | 300 kts | 355° |
| 2026-04-28 10:19 | 34.74571 | 30.87909 | 27989 ft | 300 kts | 355° |
| 2026-04-28 10:19 | 34.76664 | 30.87841 | 27990 ft | 300 kts | 355° |
| 2026-04-28 10:19 | 34.78729 | 30.87772 | 27989 ft | 300 kts | 355° |
| 2026-04-28 10:20 | 34.80819 | 30.87702 | 27988 ft | 300 kts | 355° |
| 2026-04-28 10:20 | 34.82908 | 30.87634 | 27986 ft | 300 kts | 355° |
| 2026-04-28 10:20 | 34.84998 | 30.87565 | 27985 ft | 300 kts | 355° |
| 2026-04-28 10:20 | 34.87090 | 30.87495 | 27985 ft | 300 kts | 355° |
| 2026-04-28 10:21 | 34.89177 | 30.87426 | 27987 ft | 300 kts | 355° |
| 2026-04-28 10:21 | 34.91265 | 30.87357 | 27986 ft | 300 kts | 356° |
| 2026-04-28 10:21 | 34.93351 | 30.87288 | 27984 ft | 300 kts | 356° |
| 2026-04-28 10:21 | 34.95437 | 30.87219 | 27986 ft | 300 kts | 356° |
| 2026-04-28 10:22 | 34.97522 | 30.87150 | 27985 ft | 300 kts | 356° |
| 2026-04-28 10:22 | 34.99612 | 30.87080 | 27982 ft | 300 kts | 356° |
| 2026-04-28 10:22 | 35.01695 | 30.87011 | 27983 ft | 300 kts | 356° |
| 2026-04-28 10:22 | 35.03785 | 30.86941 | 27981 ft | 300 kts | 356° |
| 2026-04-28 10:23 | 35.05874 | 30.86872 | 27982 ft | 300 kts | 356° |
| 2026-04-28 10:23 | 35.07934 | 30.86803 | 27981 ft | 300 kts | 356° |
| 2026-04-28 10:23 | 35.10022 | 30.86734 | 27980 ft | 300 kts | 356° |
| 2026-04-28 10:23 | 35.12112 | 30.86664 | 27982 ft | 300 kts | 356° |
| 2026-04-28 10:24 | 35.14198 | 30.86595 | 27981 ft | 300 kts | 356° |
| 2026-04-28 10:24 | 35.16287 | 30.86525 | 27979 ft | 300 kts | 356° |
| 2026-04-28 10:24 | 35.18372 | 30.86455 | 27978 ft | 300 kts | 356° |
| 2026-04-28 10:24 | 35.20458 | 30.86385 | 27978 ft | 300 kts | 356° |
| 2026-04-28 10:25 | 35.22542 | 30.86316 | 27977 ft | 300 kts | 356° |
| 2026-04-28 10:25 | 35.24625 | 30.86246 | 27977 ft | 300 kts | 356° |
| 2026-04-28 10:25 | 35.26686 | 30.86177 | 27977 ft | 300 kts | 356° |
| 2026-04-28 10:25 | 35.28767 | 30.86107 | 27978 ft | 300 kts | 356° |
| 2026-04-28 10:26 | 35.30860 | 30.86037 | 27973 ft | 300 kts | 356° |
| 2026-04-28 10:26 | 35.32942 | 30.85967 | 27976 ft | 299 kts | 356° |
| 2026-04-28 10:26 | 35.35032 | 30.85897 | 27971 ft | 299 kts | 356° |
| 2026-04-28 10:26 | 35.37114 | 30.85827 | 27972 ft | 299 kts | 356° |
| 2026-04-28 10:27 | 35.39198 | 30.85758 | 27971 ft | 299 kts | 356° |
| 2026-04-28 10:27 | 35.41259 | 30.85688 | 27976 ft | 299 kts | 356° |
| 2026-04-28 10:27 | 35.43344 | 30.85618 | 27974 ft | 299 kts | 356° |
| 2026-04-28 10:27 | 35.45423 | 30.85548 | 27974 ft | 299 kts | 356° |
| 2026-04-28 10:28 | 35.47510 | 30.85478 | 27974 ft | 299 kts | 356° |
| 2026-04-28 10:28 | 35.49589 | 30.85408 | 27975 ft | 299 kts | 356° |
| 2026-04-28 10:28 | 35.51667 | 30.85338 | 27975 ft | 299 kts | 356° |
| 2026-04-28 10:29 | 35.55829 | 30.85198 | 27972 ft | 299 kts | 356° |
| 2026-04-28 10:29 | 35.57914 | 30.85127 | 27970 ft | 299 kts | 356° |
| 2026-04-28 10:29 | 35.59990 | 30.85058 | 27969 ft | 299 kts | 356° |
| 2026-04-28 10:29 | 35.62046 | 30.84979 | 27967 ft | 299 kts | 354° |
| 2026-04-28 10:30 | 35.64146 | 30.84828 | 27971 ft | 299 kts | 355° |
| 2026-04-28 10:30 | 35.66194 | 30.84722 | 27968 ft | 299 kts | 355° |
| 2026-04-28 10:30 | 35.68274 | 30.84611 | 27967 ft | 299 kts | 355° |
| 2026-04-28 10:30 | 35.70346 | 30.84482 | 27967 ft | 298 kts | 355° |
| 2026-04-28 10:31 | 35.72423 | 30.84352 | 27968 ft | 298 kts | 355° |
| 2026-04-28 10:31 | 35.74497 | 30.84229 | 27967 ft | 298 kts | 355° |
| 2026-04-28 10:31 | 35.76584 | 30.84105 | 27964 ft | 298 kts | 355° |
| 2026-04-28 10:31 | 35.78658 | 30.83980 | 27966 ft | 298 kts | 355° |
| 2026-04-28 10:32 | 35.80732 | 30.83854 | 27967 ft | 298 kts | 355° |
| 2026-04-28 10:32 | 35.82807 | 30.83729 | 27965 ft | 298 kts | 355° |
| 2026-04-28 10:32 | 35.84877 | 30.83605 | 27963 ft | 298 kts | 355° |
| 2026-04-28 10:32 | 35.86952 | 30.83479 | 27962 ft | 298 kts | 355° |
| 2026-04-28 10:33 | 35.89026 | 30.83354 | 27964 ft | 298 kts | 355° |
| 2026-04-28 10:33 | 35.91101 | 30.83228 | 27964 ft | 298 kts | 355° |
| 2026-04-28 10:33 | 35.93171 | 30.83103 | 27966 ft | 298 kts | 355° |
| 2026-04-28 10:33 | 35.95216 | 30.82980 | 27966 ft | 298 kts | 355° |
| 2026-04-28 10:34 | 35.97287 | 30.82855 | 27964 ft | 298 kts | 355° |
| 2026-04-28 10:34 | 35.99358 | 30.82730 | 27966 ft | 298 kts | 355° |
| 2026-04-28 10:34 | 36.01432 | 30.82604 | 27964 ft | 298 kts | 355° |
| 2026-04-28 10:34 | 36.03499 | 30.82479 | 27966 ft | 298 kts | 355° |
| 2026-04-28 10:35 | 36.05573 | 30.82416 | 27964 ft | 298 kts | 357° |
| 2026-04-28 10:35 | 36.07653 | 30.82344 | 27964 ft | 298 kts | 355° |
| 2026-04-28 10:35 | 36.09725 | 30.82253 | 27959 ft | 298 kts | 356° |
| 2026-04-28 10:35 | 36.11806 | 30.82182 | 27962 ft | 298 kts | 356° |
| 2026-04-28 10:36 | 36.13879 | 30.82120 | 27963 ft | 298 kts | 356° |
| 2026-04-28 10:36 | 36.15957 | 30.82052 | 27961 ft | 298 kts | 356° |
| 2026-04-28 10:36 | 36.18033 | 30.81980 | 27960 ft | 298 kts | 356° |
| 2026-04-28 10:36 | 36.20107 | 30.81911 | 27961 ft | 298 kts | 356° |
| 2026-04-28 10:37 | 36.22184 | 30.81843 | 27964 ft | 298 kts | 356° |
| 2026-04-28 10:37 | 36.24263 | 30.81774 | 27961 ft | 298 kts | 356° |
| 2026-04-28 10:37 | 36.26337 | 30.81704 | 27958 ft | 298 kts | 356° |
| 2026-04-28 10:37 | 36.28412 | 30.81635 | 27958 ft | 298 kts | 356° |
| 2026-04-28 10:38 | 36.30491 | 30.81566 | 27957 ft | 298 kts | 356° |
| 2026-04-28 10:38 | 36.32567 | 30.81496 | 27958 ft | 299 kts | 356° |
| 2026-04-28 10:38 | 36.34647 | 30.81427 | 27962 ft | 299 kts | 356° |
| 2026-04-28 10:38 | 36.36727 | 30.81358 | 27962 ft | 299 kts | 356° |
| 2026-04-28 10:39 | 36.38801 | 30.81288 | 27962 ft | 299 kts | 356° |
| 2026-04-28 10:39 | 36.40879 | 30.81219 | 27961 ft | 299 kts | 356° |
| 2026-04-28 10:39 | 36.42962 | 30.81148 | 27957 ft | 299 kts | 356° |
| 2026-04-28 10:39 | 36.45015 | 30.81077 | 27958 ft | 299 kts | 356° |
| 2026-04-28 10:40 | 36.47093 | 30.81005 | 27960 ft | 299 kts | 356° |
| 2026-04-28 10:40 | 36.49172 | 30.80934 | 27959 ft | 299 kts | 356° |
| 2026-04-28 10:40 | 36.51259 | 30.80862 | 27958 ft | 299 kts | 356° |
| 2026-04-28 10:40 | 36.53340 | 30.80791 | 27957 ft | 299 kts | 356° |
| 2026-04-28 10:41 | 36.55423 | 30.80719 | 27959 ft | 299 kts | 356° |
| 2026-04-28 10:41 | 36.57504 | 30.80647 | 27954 ft | 299 kts | 356° |
| 2026-04-28 10:41 | 36.59585 | 30.80575 | 27956 ft | 299 kts | 356° |
| 2026-04-28 10:41 | 36.61677 | 30.80503 | 27956 ft | 299 kts | 356° |
| 2026-04-28 10:42 | 36.63761 | 30.80431 | 27953 ft | 300 kts | 356° |
| 2026-04-28 10:42 | 36.65848 | 30.80359 | 27954 ft | 300 kts | 356° |
| 2026-04-28 10:42 | 36.67932 | 30.80287 | 27954 ft | 300 kts | 356° |
| 2026-04-28 10:42 | 36.69989 | 30.80216 | 27954 ft | 300 kts | 356° |
| 2026-04-28 10:43 | 36.72077 | 30.80144 | 27950 ft | 300 kts | 356° |
| 2026-04-28 10:43 | 36.74173 | 30.80071 | 27953 ft | 300 kts | 356° |
| 2026-04-28 10:43 | 36.76267 | 30.79999 | 27948 ft | 300 kts | 356° |
| 2026-04-28 10:43 | 36.78353 | 30.79926 | 27948 ft | 300 kts | 356° |
| 2026-04-28 10:44 | 36.80442 | 30.79854 | 27949 ft | 300 kts | 356° |
| 2026-04-28 10:44 | 36.82533 | 30.79781 | 27948 ft | 301 kts | 356° |
| 2026-04-28 10:44 | 36.84624 | 30.79708 | 27946 ft | 301 kts | 356° |
| 2026-04-28 10:44 | 36.86690 | 30.79636 | 27945 ft | 301 kts | 356° |
| 2026-04-28 10:45 | 36.88778 | 30.79564 | 27949 ft | 301 kts | 356° |
| 2026-04-28 10:45 | 36.90875 | 30.79492 | 27947 ft | 301 kts | 356° |
| 2026-04-28 10:45 | 36.92974 | 30.79351 | 27947 ft | 301 kts | 352° |
| 2026-04-28 10:45 | 36.95060 | 30.79071 | 27949 ft | 301 kts | 352° |
| 2026-04-28 10:46 | 36.97149 | 30.78813 | 27945 ft | 302 kts | 352° |
| 2026-04-28 10:46 | 36.99240 | 30.78565 | 27948 ft | 302 kts | 352° |
| 2026-04-28 10:46 | 37.01337 | 30.78304 | 27945 ft | 303 kts | 352° |
| 2026-04-28 10:46 | 37.03438 | 30.78039 | 27945 ft | 303 kts | 352° |
| 2026-04-28 10:47 | 37.05535 | 30.77777 | 27950 ft | 303 kts | 352° |
| 2026-04-28 10:47 | 37.07612 | 30.77521 | 27952 ft | 303 kts | 352° |
| 2026-04-28 10:47 | 37.09708 | 30.77260 | 27954 ft | 303 kts | 352° |
| 2026-04-28 10:47 | 37.11805 | 30.76999 | 27955 ft | 303 kts | 352° |
| 2026-04-28 10:48 | 37.13902 | 30.76738 | 27961 ft | 303 kts | 352° |
| 2026-04-28 10:48 | 37.15998 | 30.76476 | 27964 ft | 303 kts | 352° |
| 2026-04-28 10:48 | 37.18097 | 30.76216 | 27964 ft | 303 kts | 352° |
| 2026-04-28 10:48 | 37.20200 | 30.75951 | 27965 ft | 303 kts | 352° |
| 2026-04-28 10:49 | 37.22299 | 30.75689 | 27973 ft | 303 kts | 352° |
| 2026-04-28 10:49 | 37.24396 | 30.75428 | 27973 ft | 303 kts | 352° |
| 2026-04-28 10:49 | 37.26503 | 30.75164 | 27973 ft | 303 kts | 352° |
| 2026-04-28 10:49 | 37.28575 | 30.74905 | 27975 ft | 303 kts | 352° |
| 2026-04-28 10:50 | 37.30681 | 30.74642 | 27979 ft | 303 kts | 352° |
| 2026-04-28 10:50 | 37.32079 | 30.74467 | 27984 ft | 303 kts | 352° |
| 2026-04-28 10:50 | 37.34892 | 30.74113 | 27986 ft | 304 kts | 352° |
| 2026-04-28 10:50 | 37.36998 | 30.73851 | 27986 ft | 304 kts | 352° |
| 2026-04-28 10:51 | 37.39100 | 30.73588 | 27987 ft | 304 kts | 352° |
| 2026-04-28 10:51 | 37.41213 | 30.73322 | 27987 ft | 305 kts | 352° |
| 2026-04-28 10:51 | 37.43319 | 30.73044 | 27992 ft | 305 kts | 352° |
| 2026-04-28 10:51 | 37.45423 | 30.72722 | 27995 ft | 304 kts | 351° |
| 2026-04-28 10:52 | 37.47535 | 30.72401 | 27996 ft | 305 kts | 351° |
| 2026-04-28 10:52 | 37.49640 | 30.72099 | 27999 ft | 305 kts | 352° |
| 2026-04-28 10:52 | 37.51749 | 30.71799 | 27998 ft | 305 kts | 352° |
| 2026-04-28 10:53 | 37.55940 | 30.71182 | 28008 ft | 305 kts | 352° |
| 2026-04-28 10:53 | 37.60150 | 30.70638 | 28009 ft | 305 kts | 353° |
| 2026-04-28 10:54 | 37.64367 | 30.70080 | 28012 ft | 304 kts | 352° |
| 2026-04-28 10:54 | 37.68592 | 30.69570 | 28017 ft | 304 kts | 353° |
| 2026-04-28 10:55 | 37.72811 | 30.69044 | 28029 ft | 305 kts | 353° |
| 2026-04-28 10:55 | 37.77014 | 30.68524 | 28027 ft | 305 kts | 353° |
| 2026-04-28 10:56 | 37.81246 | 30.68001 | 28029 ft | 305 kts | 353° |
| 2026-04-28 10:56 | 37.85470 | 30.67474 | 28028 ft | 305 kts | 353° |
| 2026-04-28 10:57 | 37.89654 | 30.66687 | 28026 ft | 303 kts | 339° |
| 2026-04-28 10:57 | 37.92864 | 30.64934 | 28030 ft | 303 kts | 335° |
| 2026-04-28 10:58 | 37.97398 | 30.62485 | 28030 ft | 303 kts | 335° |
| 2026-04-28 10:58 | 38.01250 | 30.60368 | 28030 ft | 303 kts | 336° |
| 2026-04-28 10:59 | 38.05126 | 30.58248 | 28031 ft | 303 kts | 335° |
| 2026-04-28 10:59 | 38.08345 | 30.56482 | 28029 ft | 303 kts | 336° |
| 2026-04-28 11:00 | 38.12225 | 30.54356 | 28031 ft | 304 kts | 336° |
| 2026-04-28 11:00 | 38.16103 | 30.52225 | 28032 ft | 304 kts | 336° |
| 2026-04-28 11:01 | 38.19983 | 30.50091 | 28033 ft | 304 kts | 336° |
| 2026-04-28 11:01 | 38.23870 | 30.47950 | 28030 ft | 304 kts | 336° |
| 2026-04-28 11:02 | 38.27759 | 30.45811 | 28029 ft | 304 kts | 336° |
| 2026-04-28 11:02 | 38.31650 | 30.43663 | 28026 ft | 304 kts | 336° |
| 2026-04-28 11:03 | 38.35536 | 30.41519 | 28026 ft | 304 kts | 336° |
| 2026-04-28 11:03 | 38.39395 | 30.39387 | 28032 ft | 305 kts | 336° |
| 2026-04-28 11:04 | 38.43289 | 30.37231 | 28033 ft | 305 kts | 336° |
| 2026-04-28 11:04 | 38.47182 | 30.35074 | 28028 ft | 305 kts | 336° |
| 2026-04-28 11:05 | 38.51084 | 30.32909 | 28028 ft | 305 kts | 336° |
| 2026-04-28 11:05 | 38.54986 | 30.30745 | 28031 ft | 306 kts | 336° |
| 2026-04-28 11:06 | 38.58867 | 30.28592 | 28027 ft | 306 kts | 336° |
| 2026-04-28 11:06 | 38.62769 | 30.26425 | 28028 ft | 305 kts | 336° |
| 2026-04-28 11:07 | 38.66659 | 30.24263 | 28029 ft | 304 kts | 336° |
| 2026-04-28 11:07 | 38.70544 | 30.22099 | 28028 ft | 304 kts | 336° |
| 2026-04-28 11:08 | 38.74425 | 30.19933 | 28031 ft | 304 kts | 336° |
| 2026-04-28 11:08 | 38.78305 | 30.17770 | 28025 ft | 303 kts | 336° |
| 2026-04-28 11:09 | 38.82171 | 30.15608 | 28026 ft | 302 kts | 336° |
| 2026-04-28 11:09 | 38.86026 | 30.13453 | 28021 ft | 302 kts | 336° |
| 2026-04-28 11:10 | 38.89883 | 30.11294 | 28020 ft | 302 kts | 336° |
| 2026-04-28 11:10 | 38.93707 | 30.09142 | 28023 ft | 302 kts | 336° |
| 2026-04-28 11:11 | 38.97546 | 30.06979 | 28023 ft | 301 kts | 336° |
| 2026-04-28 11:11 | 39.01386 | 30.04812 | 28017 ft | 301 kts | 336° |
| 2026-04-28 11:12 | 39.05226 | 30.02645 | 28022 ft | 301 kts | 336° |
| 2026-04-28 11:12 | 39.09062 | 30.00486 | 28018 ft | 301 kts | 336° |
| 2026-04-28 11:13 | 39.12874 | 29.98339 | 28024 ft | 301 kts | 336° |
| 2026-04-28 11:13 | 39.16716 | 29.96172 | 28029 ft | 301 kts | 335° |
| 2026-04-28 11:14 | 39.20561 | 29.93996 | 28015 ft | 301 kts | 335° |
| 2026-04-28 11:14 | 39.24395 | 29.91796 | 28005 ft | 302 kts | 334° |
| 2026-04-28 11:14 | 39.26319 | 29.90626 | 27733 ft | 309 kts | 334° |
| 2026-04-28 11:15 | 39.28293 | 29.89434 | 27476 ft | 316 kts | 335° |
| 2026-04-28 11:15 | 39.30277 | 29.88264 | 27221 ft | 318 kts | 335° |
| 2026-04-28 11:15 | 39.32291 | 29.87082 | 26962 ft | 318 kts | 334° |
| 2026-04-28 11:15 | 39.34300 | 29.85881 | 26710 ft | 318 kts | 334° |
| 2026-04-28 11:16 | 39.36308 | 29.84673 | 26457 ft | 318 kts | 334° |
| 2026-04-28 11:16 | 39.38318 | 29.83475 | 26207 ft | 319 kts | 335° |
| 2026-04-28 11:16 | 39.40338 | 29.82272 | 25959 ft | 319 kts | 335° |
| 2026-04-28 11:16 | 39.42363 | 29.81065 | 25713 ft | 320 kts | 334° |
| 2026-04-28 11:17 | 39.44382 | 29.79854 | 25470 ft | 320 kts | 334° |
| 2026-04-28 11:17 | 39.46404 | 29.78641 | 25228 ft | 321 kts | 334° |
| 2026-04-28 11:17 | 39.48437 | 29.77428 | 24990 ft | 321 kts | 334° |
| 2026-04-28 11:17 | 39.50438 | 29.76232 | 24757 ft | 321 kts | 335° |
| 2026-04-28 11:18 | 39.52468 | 29.75012 | 24518 ft | 321 kts | 334° |
| 2026-04-28 11:18 | 39.54497 | 29.73786 | 24290 ft | 321 kts | 334° |
| 2026-04-28 11:18 | 39.56531 | 29.72574 | 24057 ft | 321 kts | 335° |
| 2026-04-28 11:18 | 39.58555 | 29.71361 | 23828 ft | 320 kts | 335° |
| 2026-04-28 11:19 | 39.60575 | 29.70147 | 23594 ft | 320 kts | 335° |
| 2026-04-28 11:19 | 39.62591 | 29.68935 | 23319 ft | 319 kts | 335° |
| 2026-04-28 11:19 | 39.64605 | 29.67719 | 23051 ft | 318 kts | 335° |
| 2026-04-28 11:19 | 39.66613 | 29.66511 | 22785 ft | 318 kts | 335° |
| 2026-04-28 11:20 | 39.68613 | 29.65307 | 22516 ft | 317 kts | 335° |
| 2026-04-28 11:20 | 39.70612 | 29.64105 | 22250 ft | 316 kts | 334° |
| 2026-04-28 11:20 | 39.72604 | 29.62899 | 21993 ft | 315 kts | 334° |
| 2026-04-28 11:20 | 39.74596 | 29.61692 | 21733 ft | 315 kts | 334° |
| 2026-04-28 11:21 | 39.76581 | 29.60498 | 21473 ft | 313 kts | 335° |
| 2026-04-28 11:21 | 39.78533 | 29.59326 | 21221 ft | 312 kts | 334° |
| 2026-04-28 11:21 | 39.80497 | 29.58131 | 20967 ft | 311 kts | 334° |
| 2026-04-28 11:21 | 39.82463 | 29.56939 | 20723 ft | 310 kts | 334° |
| 2026-04-28 11:22 | 39.84422 | 29.55755 | 20475 ft | 310 kts | 334° |
| 2026-04-28 11:22 | 39.86382 | 29.54561 | 20230 ft | 313 kts | 334° |
| 2026-04-28 11:22 | 39.88367 | 29.53344 | 19986 ft | 316 kts | 334° |
| 2026-04-28 11:22 | 39.90375 | 29.52137 | 19743 ft | 318 kts | 334° |
| 2026-04-28 11:23 | 39.92360 | 29.50942 | 19504 ft | 319 kts | 334° |
| 2026-04-28 11:23 | 39.94372 | 29.49714 | 19266 ft | 320 kts | 334° |
| 2026-04-28 11:23 | 39.96390 | 29.48489 | 19031 ft | 319 kts | 334° |
| 2026-04-28 11:23 | 39.98398 | 29.47268 | 18795 ft | 319 kts | 334° |
| 2026-04-28 11:24 | 40.00408 | 29.46047 | 18564 ft | 318 kts | 334° |
| 2026-04-28 11:24 | 40.02410 | 29.44825 | 18329 ft | 318 kts | 334° |
| 2026-04-28 11:24 | 40.04414 | 29.43606 | 18071 ft | 317 kts | 334° |
| 2026-04-28 11:24 | 40.06413 | 29.42389 | 17800 ft | 317 kts | 334° |
| 2026-04-28 11:25 | 40.08411 | 29.41172 | 17536 ft | 316 kts | 334° |
| 2026-04-28 11:25 | 40.10396 | 29.39953 | 17275 ft | 315 kts | 334° |
| 2026-04-28 11:25 | 40.12378 | 29.38741 | 17018 ft | 314 kts | 334° |
| 2026-04-28 11:25 | 40.14354 | 29.37534 | 16763 ft | 312 kts | 334° |
| 2026-04-28 11:26 | 40.16318 | 29.36332 | 16501 ft | 310 kts | 334° |
| 2026-04-28 11:26 | 40.18270 | 29.35131 | 16250 ft | 309 kts | 334° |
| 2026-04-28 11:26 | 40.20224 | 29.33947 | 15999 ft | 309 kts | 334° |
| 2026-04-28 11:26 | 40.22164 | 29.32758 | 15752 ft | 307 kts | 334° |
| 2026-04-28 11:27 | 40.24097 | 29.31565 | 15504 ft | 307 kts | 334° |
| 2026-04-28 11:27 | 40.26027 | 29.30381 | 15263 ft | 306 kts | 334° |
| 2026-04-28 11:27 | 40.27946 | 29.29200 | 15020 ft | 304 kts | 334° |
| 2026-04-28 11:27 | 40.29837 | 29.28032 | 14784 ft | 304 kts | 334° |
| 2026-04-28 11:28 | 40.31754 | 29.26857 | 14545 ft | 303 kts | 334° |
| 2026-04-28 11:28 | 40.33658 | 29.25686 | 14307 ft | 302 kts | 334° |
| 2026-04-28 11:28 | 40.35558 | 29.24525 | 14074 ft | 301 kts | 334° |
| 2026-04-28 11:28 | 40.37442 | 29.23349 | 13831 ft | 299 kts | 334° |
| 2026-04-28 11:29 | 40.39289 | 29.22093 | 13559 ft | 297 kts | 325° |
| 2026-04-28 11:29 | 40.40795 | 29.20261 | 13295 ft | 294 kts | 310° |
| 2026-04-28 11:29 | 40.41941 | 29.18048 | 13037 ft | 293 kts | 300° |
| 2026-04-28 11:29 | 40.42977 | 29.15747 | 12783 ft | 292 kts | 302° |
| 2026-04-28 11:30 | 40.43962 | 29.13422 | 12521 ft | 291 kts | 291° |
| 2026-04-28 11:30 | 40.44391 | 29.08242 | 12008 ft | 289 kts | 264° |
| 2026-04-28 11:30 | 40.44161 | 29.05632 | 11760 ft | 287 kts | 265° |
| 2026-04-28 11:31 | 40.44001 | 29.03022 | 11513 ft | 286 kts | 266° |
| 2026-04-28 11:31 | 40.43825 | 29.00423 | 11267 ft | 285 kts | 266° |
| 2026-04-28 11:31 | 40.43931 | 28.97848 | 11020 ft | 282 kts | 283° |
| 2026-04-28 11:31 | 40.44373 | 28.95334 | 10777 ft | 282 kts | 282° |
| 2026-04-28 11:32 | 40.44721 | 28.92804 | 10537 ft | 280 kts | 282° |
| 2026-04-28 11:32 | 40.45473 | 28.90472 | 10219 ft | 280 kts | 306° |
| 2026-04-28 11:32 | 40.46963 | 28.88871 | 9819 ft | 279 kts | 334° |
| 2026-04-28 11:32 | 40.48856 | 28.88374 | 9395 ft | 279 kts | 1° |
| 2026-04-28 11:33 | 40.50701 | 28.89055 | 8989 ft | 277 kts | 26° |
| 2026-04-28 11:33 | 40.52341 | 28.90362 | 8582 ft | 275 kts | 30° |
| 2026-04-28 11:33 | 40.54033 | 28.91514 | 8183 ft | 273 kts | 21° |
| 2026-04-28 11:33 | 40.55812 | 28.92263 | 7790 ft | 271 kts | 14° |
| 2026-04-28 11:34 | 40.57618 | 28.92929 | 7391 ft | 269 kts | 17° |
| 2026-04-28 11:34 | 40.59383 | 28.93720 | 7006 ft | 267 kts | 19° |
| 2026-04-28 11:34 | 40.61131 | 28.94530 | 6626 ft | 266 kts | 18° |
| 2026-04-28 11:34 | 40.62885 | 28.95292 | 6216 ft | 264 kts | 18° |
| 2026-04-28 11:35 | 40.64623 | 28.96037 | 5803 ft | 261 kts | 18° |
| 2026-04-28 11:35 | 40.66340 | 28.96795 | 5398 ft | 259 kts | 19° |
| 2026-04-28 11:35 | 40.67772 | 28.97426 | 5071 ft | 257 kts | 19° |
| 2026-04-28 11:35 | 40.69432 | 28.98153 | 4672 ft | 257 kts | 19° |
| 2026-04-28 11:36 | 40.71121 | 28.98892 | 4260 ft | 255 kts | 20° |
| 2026-04-28 11:36 | 40.72779 | 28.99628 | 3988 ft | 236 kts | 21° |
| 2026-04-28 11:36 | 40.74190 | 29.00277 | 3983 ft | 211 kts | 20° |
| 2026-04-28 11:36 | 40.75605 | 29.00850 | 3978 ft | 213 kts | 20° |
| 2026-04-28 11:37 | 40.76911 | 29.01747 | 3975 ft | 213 kts | 41° |
| 2026-04-28 11:37 | 40.77875 | 29.03205 | 3980 ft | 209 kts | 58° |
| 2026-04-28 11:37 | 40.78617 | 29.04814 | 3982 ft | 200 kts | 58° |
| 2026-04-28 11:37 | 40.79363 | 29.06338 | 3981 ft | 197 kts | 57° |
| 2026-04-28 11:38 | 40.80119 | 29.07860 | 3983 ft | 200 kts | 57° |
| 2026-04-28 11:38 | 40.80883 | 29.09409 | 3981 ft | 201 kts | 59° |
| 2026-04-28 11:38 | 40.81453 | 29.11109 | 3920 ft | 205 kts | 67° |
| 2026-04-28 11:38 | 40.82058 | 29.12827 | 3617 ft | 210 kts | 63° |
| 2026-04-28 11:39 | 40.82685 | 29.14521 | 3241 ft | 195 kts | 65° |
| 2026-04-28 11:39 | 40.83233 | 29.16067 | 2727 ft | 176 kts | 63° |
| 2026-04-28 11:39 | 40.83755 | 29.17452 | 2437 ft | 170 kts | 61° |
| 2026-04-28 11:39 | 40.84283 | 29.18818 | 2196 ft | 159 kts | 63° |
| 2026-04-28 11:40 | 40.84724 | 29.20055 | 1997 ft | 145 kts | 62° |
| 2026-04-28 11:40 | 40.85166 | 29.21226 | 1802 ft | 144 kts | 63° |
| 2026-04-28 11:40 | 40.85601 | 29.22429 | 1618 ft | 146 kts | 62° |
| 2026-04-28 11:40 | 40.86045 | 29.23622 | 1419 ft | 144 kts | 62° |
| 2026-04-28 11:41 | 40.86473 | 29.24803 | 1217 ft | 144 kts | 61° |
| 2026-04-28 11:41 | 40.86904 | 29.25966 | 1021 ft | 139 kts | 62° |
| 2026-04-28 11:41 | 40.87321 | 29.27087 | 851 ft | 136 kts | 63° |
| 2026-04-28 11:41 | 40.87734 | 29.28219 | 692 ft | 137 kts | 62° |
| 2026-04-28 11:42 | 40.88125 | 29.29286 | 461 ft | 120 kts | 63° |
| 2026-04-28 11:42 | 40.88504 | 29.30307 | 312 ft | 118 kts | 62° |
| 2026-04-28 11:42 | 40.88802 | 29.31124 | 293 ft | 82 kts | 61° |
| 2026-04-28 11:42 | 40.88990 | 29.31628 | 304 ft | 46 kts | 64° |
| 2026-04-28 11:43 | 40.89119 | 29.31978 | 304 ft | 40 kts | 64° |
| 2026-04-28 11:43 | 40.89254 | 29.32272 | 298 ft | 30 kts | 54° |
| 2026-04-28 11:43 | 40.89334 | 29.32391 | 300 ft | 5 kts | 40° |
| 2026-04-28 11:43 | 40.89363 | 29.32423 | 301 ft | 8 kts | 37° |
| 2026-04-28 11:44 | 40.89422 | 29.32474 | 301 ft | 13 kts | 30° |
| 2026-04-28 11:44 | 40.89493 | 29.32510 | 302 ft | 9 kts | 351° |
| 2026-04-28 11:44 | 40.89498 | 29.32412 | 301 ft | 16 kts | 282° |
| 2026-04-28 11:44 | 40.89564 | 29.32347 | 301 ft | 11 kts | 344° |
| 2026-04-28 11:45 | 40.89640 | 29.32309 | 301 ft | 13 kts | 338° |
| 2026-04-28 11:45 | 40.89730 | 29.32258 | 302 ft | 13 kts | 334° |
| 2026-04-28 11:45 | 40.89798 | 29.32215 | 304 ft | 12 kts | 333° |
| 2026-04-28 11:45 | 40.89854 | 29.32177 | 306 ft | 15 kts | 334° |
| 2026-04-28 11:46 | 40.89943 | 29.32120 | 308 ft | 14 kts | 334° |
| 2026-04-28 11:46 | 40.90030 | 29.32067 | 314 ft | 13 kts | 334° |
| 2026-04-28 11:46 | 40.90097 | 29.32079 | 315 ft | 11 kts | 52° |
| 2026-04-28 11:46 | 40.90134 | 29.32175 | 315 ft | 13 kts | 64° |
| 2026-04-28 11:47 | 40.90169 | 29.32272 | 315 ft | 10 kts | 62° |
| 2026-04-28 11:47 | 40.90195 | 29.32337 | 315 ft | 8 kts | 64° |
| 2026-04-28 11:47 | 40.90229 | 29.32427 | 315 ft | 15 kts | 64° |
| 2026-04-28 11:47 | 40.90292 | 29.32565 | 315 ft | 19 kts | 36° |
| 2026-04-28 11:48 | 40.90398 | 29.32538 | 315 ft | 15 kts | 335° |
| 2026-04-28 11:48 | 40.90496 | 29.32475 | 315 ft | 14 kts | 334° |
| 2026-04-28 11:48 | 40.90577 | 29.32412 | 315 ft | 14 kts | 313° |
| 2026-04-28 11:48 | 40.90644 | 29.32323 | 315 ft | 11 kts | 328° |
| 2026-04-28 11:49 | 40.90708 | 29.32282 | 315 ft | 11 kts | 338° |
| 2026-04-28 11:49 | 40.90763 | 29.32297 | 315 ft | 6 kts | 58° |
| 2026-04-28 11:49 | 40.90775 | 29.32337 | 315 ft | 4 kts | 105° |
| 2026-04-28 11:49 | 40.90741 | 29.32363 | 315 ft | 6 kts | 154° |
| 2026-04-28 11:50 | 40.90712 | 29.32381 | 315 ft | 3 kts | 154° |
| 2026-04-28 11:50 | 40.90708 | 29.32383 | 315 ft | 0 kts | 154° |